»·PEaware :: N62DM KSAF-KDRO

N62DM :: KSAF-KDRO

FLIGHT INFORMATION

Flight Status: Arrived
Operator: Privately registered:
United States
More flights under this callsign
Pilot: Joe L. (24029)
Aircraft: DIAMOND DA-42 TWINSTAR
(DA42)
More flights by this aircraft type
Origin: KSAF Santa Fe Mun
United States
Destination: KDRO Durango-La Plata Co
United States
More flights between these airports :: More routes between these airports
Route: PEDRA V69 FMN DRO
File this flight plan on PilotEdge
Remarks:
Altitude:
(Current/Filed)
10,500ft
Speed:
(Current/Filed)
150kts
Departed: 23-Mar-19 05:39 AM
Arrived: 23-Mar-19 06:39 AM
Distance/Time
Traveled:
124nm/1:00
Distance/Time
To Go:
Arrived

Flight Plot

Page will automatically refresh every two minutes.

Flight plan parsing failed; only flown route is shown


Map Options




Map Legend


Flown Route
Filed Route
Departure Airport
Arrival Airport
Navaid (VOR, NDB)
Fix

Horizontal Profiles

Position Reports

Time Latitude Longitude Heading Altitude Ground
Speed
23-Mar-19 05:37 35.584221 -106.318170 265 10517ft 169kts
23-Mar-19 05:38 35.577976 -106.375384 266 10517ft 169kts
23-Mar-19 05:39 35.571639 -106.432911 266 10518ft 169kts
23-Mar-19 05:40 35.565320 -106.490142 265 10527ft 169kts
23-Mar-19 05:41 35.558971 -106.547201 266 10528ft 169kts
23-Mar-19 05:42 35.552595 -106.604452 265 10528ft 169kts
23-Mar-19 05:43 35.546192 -106.661814 265 10528ft 169kts
23-Mar-19 05:44 35.539783 -106.718749 265 10537ft 168kts
23-Mar-19 05:45 35.533358 -106.775969 265 10537ft 168kts
23-Mar-19 05:46 35.526894 -106.832978 265 10537ft 168kts
23-Mar-19 05:47 35.520428 -106.889841 264 10539ft 168kts
23-Mar-19 05:48 35.515288 -106.934661 265 10543ft 167kts
23-Mar-19 05:49 35.536101 -106.977706 340 10551ft 167kts
23-Mar-19 05:50 35.581261 -106.992657 341 10553ft 168kts
23-Mar-19 05:51 35.626392 -107.007582 341 10553ft 168kts
23-Mar-19 05:52 35.671664 -107.022534 341 10553ft 169kts
23-Mar-19 05:53 35.717079 -107.037593 341 10553ft 169kts
23-Mar-19 05:54 35.762609 -107.052684 341 10553ft 169kts
23-Mar-19 05:55 35.808044 -107.067788 341 10553ft 169kts
23-Mar-19 05:56 35.853301 -107.082836 341 10553ft 169kts
23-Mar-19 05:57 35.898830 -107.097990 341 10553ft 169kts
23-Mar-19 05:58 35.944192 -107.113103 341 10553ft 169kts
23-Mar-19 05:59 35.989616 -107.128241 341 10553ft 169kts
23-Mar-19 06:00 36.035629 -107.143644 341 10480ft 171kts
23-Mar-19 06:01 36.081458 -107.158992 341 10479ft 170kts
23-Mar-19 06:02 36.127206 -107.174297 341 10479ft 170kts
23-Mar-19 06:03 36.171282 -107.193571 312 10482ft 166kts
23-Mar-19 06:04 36.200207 -107.238427 307 10488ft 167kts
23-Mar-19 06:05 36.229214 -107.283428 307 10486ft 167kts
23-Mar-19 06:06 36.257956 -107.328534 307 10485ft 167kts
23-Mar-19 06:07 36.286685 -107.373775 307 10485ft 167kts
23-Mar-19 06:08 36.315511 -107.419152 307 10483ft 167kts
23-Mar-19 06:09 36.344278 -107.464405 307 10483ft 167kts
23-Mar-19 06:10 36.373050 -107.509668 307 10481ft 167kts
23-Mar-19 06:11 36.401933 -107.555097 307 10482ft 167kts
23-Mar-19 06:12 36.430770 -107.600409 307 10494ft 166kts
23-Mar-19 06:13 36.459429 -107.645472 307 10514ft 167kts
23-Mar-19 06:14 36.488294 -107.690799 307 10515ft 167kts
23-Mar-19 06:15 36.517232 -107.736249 307 10515ft 167kts
23-Mar-19 06:16 36.546058 -107.781557 307 10515ft 167kts
23-Mar-19 06:17 36.574984 -107.827010 307 10515ft 167kts
23-Mar-19 06:18 36.603923 -107.872442 307 10515ft 167kts
23-Mar-19 06:19 36.632786 -107.917716 307 10514ft 167kts
23-Mar-19 06:20 36.637190 -107.924589 307 10515ft 168kts
23-Mar-19 06:21 36.658801 -107.958481 307 10515ft 168kts
23-Mar-19 06:22 36.666193 -107.970081 307 10515ft 168kts
23-Mar-19 06:23 36.683997 -107.998021 307 10515ft 168kts
23-Mar-19 06:24 36.713229 -108.043819 307 10515ft 169kts
23-Mar-19 06:25 36.745230 -108.085908 339 10519ft 172kts
23-Mar-19 06:26 36.789637 -108.063540 31 10513ft 181kts
23-Mar-19 06:27 36.832158 -108.027090 32 9827ft 188kts
23-Mar-19 06:28 36.874339 -107.990779 34 9021ft 181kts
23-Mar-19 06:29 36.913560 -107.957021 34 8487ft 155kts
23-Mar-19 06:30 36.945538 -107.929466 34 8486ft 129kts
23-Mar-19 06:31 36.975693 -107.903375 34 8247ft 137kts
23-Mar-19 06:32 37.005789 -107.876143 34 7719ft 128kts
23-Mar-19 06:33 37.032456 -107.853356 32 7411ft 108kts
23-Mar-19 06:34 37.058387 -107.833015 31 7386ft 111kts
23-Mar-19 06:35 37.086766 -107.816638 36 7595ft 115kts
23-Mar-19 06:36 37.111340 -107.792473 36 7393ft 112kts
23-Mar-19 06:37 37.135533 -107.769080 36 6875ft 104kts
23-Mar-19 06:38 37.152152 -107.753132 33 6689ft 37kts
23-Mar-19 06:39 37.155695 -107.751526 220 6688ft 8kts
23-Mar-19 06:40 37.155878 -107.752661 307 6688ft 0kts
23-Mar-19 06:41 37.155878 -107.752661 307 6688ft 0kts
23-Mar-19 06:42 37.155878 -107.752661 307 6688ft 0kts
23-Mar-19 06:43 36.739786 -108.227623 178 5509ft 0kts
23-Mar-19 06:45 36.739786 -108.227623 178 5509ft 0kts
23-Mar-19 06:46 36.739786 -108.227623 178 5509ft 0kts
23-Mar-19 06:47 36.739786 -108.227623 178 5509ft 0kts
23-Mar-19 06:48 36.739786 -108.227623 178 5509ft 0kts
23-Mar-19 06:49 36.739786 -108.227623 178 5509ft 0kts
23-Mar-19 06:50 36.739786 -108.227623 178 5509ft 0kts
23-Mar-19 06:54 36.739786 -108.227623 178 5509ft 0kts

Navigation Log

Ident Type
Flight plan parsing failed, navigation log unavailable